createdAt,value
2018-11-01T05:58:31.641Z,17.90
2018-11-01T06:01:01.749Z,16.67
2018-11-01T06:03:30.734Z,17.43
2018-11-01T06:05:59.440Z,17.17
2018-11-01T06:08:31.873Z,23.03
2018-11-01T06:11:00.685Z,16.90
2018-11-01T06:13:29.469Z,18.20
2018-11-01T06:15:58.161Z,18.63
2018-11-01T06:18:26.870Z,18.17
2018-11-01T06:20:55.620Z,17.97
2018-11-01T06:23:24.313Z,16.57
2018-11-01T06:25:52.964Z,17.63
2018-11-01T06:28:21.731Z,15.87
2018-11-01T06:30:50.494Z,15.70
2018-11-01T06:33:19.213Z,16.13
2018-11-01T06:35:50.300Z,15.93
2018-11-01T06:38:18.997Z,17.20
2018-11-01T06:40:48.057Z,21.97
2018-11-01T06:43:16.714Z,18.40
2018-11-01T06:45:50.710Z,16.57
2018-11-01T06:48:19.501Z,18.67
2018-11-01T06:50:48.314Z,16.67
2018-11-01T06:53:17.052Z,15.97
2018-11-01T06:55:45.789Z,16.37
2018-11-01T06:58:14.556Z,17.47
2018-11-01T07:00:43.232Z,17.17
2018-11-01T07:03:11.973Z,17.00
2018-11-01T07:05:40.756Z,15.83
2018-11-01T07:08:09.421Z,15.50
2018-11-01T07:10:38.081Z,16.73
2018-11-01T07:13:06.880Z,15.67
2018-11-01T07:15:35.624Z,16.13
2018-11-01T07:18:04.548Z,16.27
2018-11-01T07:20:33.347Z,15.23
2018-11-01T07:23:02.044Z,15.50
2018-11-01T07:25:30.856Z,15.33
2018-11-01T07:27:59.587Z,14.90
2018-11-01T07:30:28.249Z,15.17
2018-11-01T07:32:56.935Z,15.27
2018-11-01T07:35:25.609Z,15.03
2018-11-01T07:37:54.321Z,17.03
2018-11-01T07:40:23.128Z,17.83
2018-11-01T07:42:51.859Z,18.80
2018-11-01T07:45:20.626Z,21.07
2018-11-01T07:47:49.440Z,20.07
2018-11-01T07:50:18.214Z,20.97
2018-11-01T07:52:47.080Z,20.83
2018-11-01T07:55:16.770Z,21.33
2018-11-01T07:57:45.501Z,19.90
2018-11-01T08:00:16.425Z,22.33
2018-11-01T08:02:46.103Z,21.90
2018-11-01T08:05:15.118Z,23.17
2018-11-01T08:07:43.892Z,22.57
2018-11-01T08:10:17.452Z,21.63
2018-11-01T08:12:46.920Z,22.57
2018-11-01T08:15:18.011Z,24.40
2018-11-01T08:17:46.777Z,22.77
2018-11-01T08:20:16.206Z,23.43
2018-11-01T08:22:44.778Z,23.07
2018-11-01T08:25:13.984Z,22.30
2018-11-01T08:27:43.234Z,20.17
2018-11-01T08:30:14.182Z,20.43
2018-11-01T08:32:43.004Z,20.40
2018-11-01T08:35:12.093Z,20.23
2018-11-01T08:37:41.928Z,20.27
2018-11-01T08:40:11.433Z,20.03
2018-11-01T08:42:40.532Z,19.23
2018-11-01T08:45:11.080Z,20.37
2018-11-01T08:47:39.939Z,19.20
2018-11-01T08:50:10.172Z,19.17
2018-11-01T08:52:39.283Z,19.53
2018-11-01T08:55:08.672Z,20.03
2018-11-01T08:57:37.649Z,19.80
2018-11-01T09:00:10.993Z,21.67
2018-11-01T09:02:40.031Z,22.87
2018-11-01T09:05:10.131Z,22.53
2018-11-01T09:07:39.426Z,22.93
2018-11-01T09:10:10.577Z,22.43
2018-11-01T09:12:39.408Z,21.10
2018-11-01T09:15:09.699Z,23.07
2018-11-01T09:17:38.494Z,21.77
2018-11-01T09:20:08.222Z,22.17
2018-11-01T09:22:36.943Z,22.27
2018-11-01T09:25:06.007Z,22.87
2018-11-01T09:27:34.790Z,22.20
2018-11-01T09:30:07.718Z,22.13
2018-11-01T09:32:36.420Z,22.63
2018-11-01T09:35:05.540Z,22.27
2018-11-01T09:37:34.308Z,23.47
2018-11-01T09:40:03.040Z,24.20
2018-11-01T09:42:31.757Z,24.53
2018-11-01T09:45:00.491Z,22.47
2018-11-01T09:47:29.729Z,24.20
2018-11-01T09:49:58.013Z,25.40
2018-11-01T09:52:26.853Z,22.90
2018-11-01T09:54:55.657Z,23.77
2018-11-01T09:57:24.361Z,24.80
2018-11-01T09:59:53.237Z,23.97
2018-11-01T10:02:21.926Z,24.43
2018-11-01T10:04:50.703Z,24.63
2018-11-01T10:07:19.769Z,24.20
2018-11-01T10:09:48.460Z,24.33
2018-11-01T10:12:17.331Z,26.30
2018-11-01T10:14:46.034Z,25.50
2018-11-01T10:17:15.083Z,25.67
2018-11-01T10:19:43.737Z,25.57
2018-11-01T10:22:12.517Z,25.87
2018-11-01T10:24:41.164Z,26.20
2018-11-01T10:27:19.513Z,26.03
2018-11-01T10:29:38.792Z,25.83
2018-11-01T10:32:07.612Z,25.17
2018-11-01T10:34:36.346Z,24.63
2018-11-01T10:37:05.054Z,24.53
2018-11-01T10:39:33.761Z,26.40
2018-11-01T10:42:02.464Z,24.17
2018-11-01T10:44:31.182Z,25.37
2018-11-01T10:46:59.856Z,23.77
2018-11-01T10:49:28.562Z,23.10
2018-11-01T10:51:57.286Z,24.60
2018-11-01T10:54:26.029Z,23.40
2018-11-01T10:56:54.741Z,23.87
2018-11-01T10:59:32.282Z,22.53
2018-11-01T11:02:06.097Z,23.23
2018-11-01T11:04:34.865Z,22.73
2018-11-01T11:07:03.534Z,22.17
2018-11-01T11:09:32.743Z,23.90
2018-11-01T11:12:01.513Z,23.07
2018-11-01T11:14:30.326Z,24.20
2018-11-01T11:16:59.901Z,24.53
2018-11-01T11:19:28.569Z,24.10
2018-11-01T11:21:57.236Z,24.47
2018-11-01T11:24:25.917Z,23.83
2018-11-01T11:29:35.977Z,24.17
2018-11-01T11:32:04.736Z,22.87
2018-11-01T11:34:33.460Z,21.17
2018-11-01T11:37:02.123Z,23.10
2018-11-01T11:39:30.835Z,22.30
2018-11-01T11:41:59.567Z,21.97
2018-11-01T11:44:28.270Z,22.57
2018-11-01T11:46:56.981Z,21.97
2018-11-01T11:49:25.620Z,20.40
2018-11-01T11:51:54.389Z,20.20
2018-11-01T11:54:23.144Z,19.80
2018-11-01T11:56:51.995Z,21.23
2018-11-01T11:59:20.717Z,22.13
2018-11-01T12:01:49.445Z,19.57
2018-11-01T12:04:18.178Z,18.03
2018-11-01T12:06:46.916Z,16.83
2018-11-01T12:09:15.715Z,15.20
2018-11-01T12:11:44.617Z,15.47
2018-11-01T12:14:13.443Z,14.67
2018-11-01T12:16:43.496Z,14.37
2018-11-01T12:19:12.183Z,14.87
2018-11-01T12:21:40.953Z,15.07
2018-11-01T12:24:09.656Z,14.83
2018-11-01T12:26:38.357Z,16.33
2018-11-01T12:29:07.248Z,15.18
2018-11-01T12:31:35.810Z,15.67
2018-11-01T12:34:05.221Z,14.87
2018-11-01T12:36:33.901Z,14.67
2018-11-01T12:39:02.590Z,14.80
2018-11-01T12:41:31.423Z,15.70
2018-11-01T12:44:00.147Z,15.93
2018-11-01T12:46:31.641Z,15.27
2018-11-01T12:49:00.397Z,16.43
2018-11-01T12:51:29.929Z,16.33
2018-11-01T12:53:59.087Z,15.17
2018-11-01T12:56:27.782Z,16.13
2018-11-01T12:58:56.539Z,16.50
2018-11-01T13:01:25.379Z,15.73
2018-11-01T13:03:54.060Z,15.20
2018-11-01T13:06:22.829Z,16.73
2018-11-01T13:08:51.561Z,15.97
2018-11-01T13:11:20.280Z,17.00
2018-11-01T13:13:49.096Z,17.63
2018-11-01T13:16:17.866Z,16.60
2018-11-01T13:18:46.649Z,16.10
2018-11-01T13:21:15.488Z,15.97
2018-11-01T13:23:44.246Z,15.03
2018-11-01T13:26:13.015Z,18.43
2018-11-01T13:28:41.702Z,17.37
2018-11-01T13:31:10.455Z,16.57
2018-11-01T13:33:39.179Z,16.70
2018-11-01T13:36:07.898Z,17.03
2018-11-01T13:38:36.705Z,15.53
2018-11-01T13:41:06.480Z,15.47
2018-11-01T13:43:34.762Z,15.67
2018-11-01T13:46:03.481Z,16.73
2018-11-01T13:48:32.326Z,16.00
2018-11-01T13:51:01.050Z,16.67
2018-11-01T13:53:29.765Z,17.00
2018-11-01T13:55:58.502Z,16.40
2018-11-01T13:58:27.195Z,16.13
2018-11-01T14:00:55.994Z,16.70
2018-11-01T14:03:24.750Z,15.90
2018-11-01T14:05:53.555Z,16.80
2018-11-01T14:08:22.230Z,16.33
2018-11-01T14:10:50.990Z,15.70
2018-11-01T14:13:19.771Z,15.70
2018-11-01T14:15:48.429Z,15.70
2018-11-01T14:18:17.230Z,16.33
2018-11-01T14:20:45.972Z,14.73
2018-11-01T14:23:14.662Z,15.27
2018-11-01T14:25:43.426Z,15.70
2018-11-01T14:28:12.133Z,15.27
2018-11-01T14:30:40.855Z,14.93
2018-11-01T14:33:09.851Z,14.27
2018-11-01T14:35:38.509Z,14.30
2018-11-01T14:38:07.195Z,15.13
2018-11-01T14:40:35.869Z,15.23
2018-11-01T14:43:04.788Z,13.57
2018-11-01T14:45:33.617Z,13.27
2018-11-01T14:48:02.345Z,12.73
2018-11-01T14:50:31.058Z,11.77
2018-11-01T14:53:00.748Z,12.27
2018-11-01T14:55:30.366Z,11.27
2018-11-01T14:57:59.250Z,12.90
2018-11-01T15:00:26.741Z,11.30
2018-11-01T15:02:55.771Z,10.57
2018-11-01T15:05:24.555Z,11.60
2018-11-01T15:07:53.241Z,10.60
2018-11-01T15:10:21.978Z,11.13
2018-11-01T15:12:51.087Z,10.43
2018-11-01T15:15:19.789Z,11.57
2018-11-01T15:17:50.447Z,10.20
2018-11-01T15:20:19.511Z,9.63
2018-11-01T15:22:48.269Z,11.10
2018-11-01T15:25:16.944Z,9.77
2018-11-01T15:27:45.735Z,9.00
2018-11-01T15:30:16.506Z,8.77
2018-11-01T15:32:45.281Z,9.33
2018-11-01T15:35:14.448Z,8.93
2018-11-01T15:37:43.345Z,7.90
2018-11-01T15:40:14.854Z,8.80
2018-11-01T15:42:44.204Z,7.73
2018-11-01T15:45:13.855Z,7.70
2018-11-01T15:47:43.080Z,9.00
2018-11-01T15:50:12.801Z,9.00
2018-11-01T15:52:41.622Z,8.70
2018-11-01T15:55:10.720Z,7.93
2018-11-01T15:57:39.493Z,7.77
2018-11-01T16:00:10.649Z,8.27
2018-11-01T16:02:40.742Z,7.50
2018-11-01T16:05:09.933Z,8.03
2018-11-01T16:07:38.734Z,8.83
2018-11-01T16:10:08.389Z,7.70
2018-11-01T16:12:37.334Z,8.40
2018-11-01T16:15:07.908Z,7.97
2018-11-01T16:17:36.638Z,8.00
2018-11-01T16:20:06.152Z,8.47
2018-11-01T16:22:34.870Z,8.63
2018-11-01T16:25:03.809Z,8.30
2018-11-01T16:27:33.905Z,8.37
2018-11-01T16:30:06.463Z,9.10
2018-11-01T16:32:35.155Z,9.10
2018-11-01T16:35:04.030Z,8.43
2018-11-01T16:37:32.807Z,8.70
2018-11-01T16:40:01.593Z,10.77
2018-11-01T16:42:30.588Z,8.40
2018-11-01T16:44:59.980Z,8.43
2018-11-01T16:47:28.642Z,8.97
2018-11-01T16:49:57.393Z,8.80
2018-11-01T16:52:26.137Z,8.57
2018-11-01T16:54:54.836Z,8.80
2018-11-01T16:57:23.562Z,8.90
2018-11-01T16:59:52.351Z,9.70
2018-11-01T17:02:21.158Z,8.90
2018-11-01T17:04:50.601Z,9.07
2018-11-01T17:07:19.535Z,9.47
2018-11-01T17:09:48.263Z,9.10
2018-11-01T17:12:17.053Z,9.43
2018-11-01T17:14:45.765Z,8.57
2018-11-01T17:17:14.428Z,9.40
2018-11-01T17:19:43.156Z,11.30
2018-11-01T17:22:11.949Z,11.40
2018-11-01T17:24:41.877Z,12.30
2018-11-01T17:27:10.580Z,12.30
2018-11-01T17:29:39.356Z,11.30
2018-11-01T17:32:08.032Z,11.33
2018-11-01T17:34:37.181Z,10.40
2018-11-01T17:37:06.169Z,12.03
2018-11-01T17:39:34.921Z,10.00
2018-11-01T17:42:03.663Z,9.30
2018-11-01T17:44:32.397Z,9.37
2018-11-01T17:47:01.196Z,9.93
2018-11-01T17:49:29.958Z,10.23
2018-11-01T17:51:58.677Z,10.33
2018-11-01T17:54:28.259Z,12.30
2018-11-01T17:56:57.837Z,10.50
2018-11-01T17:59:34.478Z,11.40
2018-11-01T18:02:04.659Z,9.13
2018-11-01T18:04:33.337Z,10.60
2018-11-01T18:07:02.087Z,10.00
2018-11-01T18:09:30.795Z,11.00
2018-11-01T18:11:59.920Z,11.00
2018-11-01T18:14:28.747Z,10.70
2018-11-01T18:16:57.434Z,11.03
2018-11-01T18:19:26.124Z,11.37
2018-11-01T18:21:54.983Z,10.63
2018-11-01T18:24:23.785Z,11.33
2018-11-01T18:26:52.476Z,11.40
2018-11-01T18:29:21.907Z,12.97
2018-11-01T18:31:50.620Z,13.67
2018-11-01T18:34:19.481Z,12.87
2018-11-01T18:36:48.161Z,12.27
2018-11-01T18:39:17.021Z,12.63
2018-11-01T18:41:45.785Z,12.80
2018-11-01T18:44:14.486Z,12.33
2018-11-01T18:46:43.331Z,13.17
2018-11-01T18:49:12.072Z,12.13
2018-11-01T18:51:40.768Z,12.90
2018-11-01T18:54:09.621Z,13.73
2018-11-01T18:56:38.440Z,12.83
2018-11-01T18:59:07.163Z,15.10
2018-11-01T19:01:36.013Z,14.73
2018-11-01T19:04:04.932Z,14.20
2018-11-01T19:13:20.834Z,11.63
2018-11-01T19:15:49.678Z,11.77
2018-11-01T19:18:18.376Z,12.57
2018-11-01T19:20:47.216Z,11.10
2018-11-01T19:23:16.006Z,11.33
2018-11-01T19:25:45.742Z,12.00
2018-11-01T19:28:14.538Z,12.57
2018-11-01T19:30:43.185Z,16.73
2018-11-01T19:33:11.941Z,13.20
2018-11-01T19:35:40.667Z,13.93
2018-11-01T19:38:09.399Z,15.60
2018-11-01T19:40:38.176Z,15.63
2018-11-01T19:43:06.826Z,15.00
2018-11-01T19:45:35.512Z,14.40
2018-11-01T19:48:04.309Z,13.53
2018-11-01T19:50:33.025Z,13.47
2018-11-01T19:53:01.714Z,12.63
2018-11-01T19:55:30.677Z,9.83
2018-11-01T19:57:59.393Z,10.73
2018-11-01T20:00:28.112Z,10.17
2018-11-01T20:02:56.843Z,10.07
2018-11-01T20:05:25.559Z,9.30
2018-11-01T20:07:54.296Z,8.67
2018-11-01T20:10:23.109Z,9.80
2018-11-01T20:12:51.789Z,9.20
2018-11-01T20:15:20.515Z,9.73
2018-11-01T20:17:49.228Z,9.83
2018-11-01T20:20:17.909Z,9.23
2018-11-01T20:22:46.763Z,10.23
2018-11-01T20:25:15.561Z,11.30
2018-11-01T20:27:44.319Z,10.97
2018-11-01T20:30:15.333Z,11.00
2018-11-01T20:32:47.076Z,10.80
2018-11-01T20:35:17.128Z,10.80
2018-11-01T20:37:45.904Z,10.83
2018-11-01T20:40:14.600Z,11.27
2018-11-01T20:42:43.810Z,10.17
2018-11-01T20:45:13.409Z,9.80
2018-11-01T20:47:42.161Z,10.77
2018-11-01T20:50:12.089Z,11.33
2018-11-01T20:52:40.800Z,14.30
2018-11-01T20:55:10.090Z,16.53
2018-11-01T20:57:39.288Z,16.57
2018-11-01T21:00:13.600Z,19.20
2018-11-01T21:02:42.404Z,20.27
2018-11-01T21:05:12.501Z,21.53
2018-11-01T21:07:41.160Z,24.23
2018-11-01T21:10:10.799Z,24.13
2018-11-01T21:12:39.914Z,25.53
2018-11-01T21:15:10.522Z,27.93
2018-11-01T21:17:39.322Z,28.33
2018-11-01T21:20:08.374Z,27.70
2018-11-01T21:22:37.102Z,28.07
2018-11-01T21:25:06.314Z,28.33
2018-11-01T21:27:34.970Z,29.37
2018-11-01T21:30:07.896Z,29.77
2018-11-01T21:32:36.609Z,32.57
2018-11-01T21:35:06.085Z,33.63
2018-11-01T21:37:34.633Z,35.20
2018-11-01T21:40:03.379Z,36.17
2018-11-01T21:42:32.105Z,36.93
2018-11-01T21:45:00.869Z,33.37
2018-11-01T21:47:29.575Z,33.40
2018-11-01T21:49:58.308Z,33.17
2018-11-01T21:52:27.001Z,33.30
2018-11-01T21:54:55.779Z,33.73
2018-11-01T21:57:24.509Z,33.33
2018-11-01T21:59:53.268Z,32.87
2018-11-01T22:02:22.024Z,32.40
2018-11-01T22:04:50.844Z,33.83
2018-11-01T22:07:19.956Z,33.13
2018-11-01T22:09:48.698Z,32.77
2018-11-01T22:12:17.368Z,33.40
2018-11-01T22:14:46.075Z,32.73
2018-11-01T22:17:15.089Z,33.47
2018-11-01T22:19:43.871Z,31.67
2018-11-01T22:22:12.557Z,32.80
2018-11-01T22:24:41.264Z,31.43
2018-11-01T22:27:09.975Z,32.87
2018-11-01T22:29:38.649Z,31.27
2018-11-01T22:32:07.425Z,32.87
2018-11-01T22:34:36.091Z,32.70
2018-11-01T22:37:04.789Z,33.60
2018-11-01T22:39:33.497Z,33.30
2018-11-01T22:42:02.438Z,34.70
2018-11-01T22:44:31.102Z,33.87
2018-11-01T22:46:59.810Z,33.67
2018-11-01T22:49:28.573Z,36.37
2018-11-01T22:51:57.335Z,36.47
2018-11-01T22:54:26.014Z,37.33
2018-11-01T22:56:54.757Z,37.97
2018-11-01T22:59:23.469Z,37.37
2018-11-01T23:01:52.228Z,36.80
2018-11-01T23:04:21.013Z,36.73
2018-11-01T23:06:49.961Z,38.53
2018-11-01T23:09:18.727Z,36.23
2018-11-01T23:11:47.485Z,38.10
2018-11-01T23:14:16.177Z,36.13
2018-11-01T23:16:45.562Z,36.60
2018-11-01T23:19:14.482Z,38.40
2018-11-01T23:21:43.164Z,35.60
2018-11-01T23:24:11.868Z,35.97
2018-11-01T23:26:40.517Z,34.90
2018-11-01T23:29:09.781Z,37.10
2018-11-01T23:31:38.531Z,36.13
2018-11-01T23:34:07.316Z,34.73
2018-11-01T23:36:41.161Z,36.60
2018-11-01T23:39:15.109Z,35.10
2018-11-01T23:41:48.942Z,35.23
2018-11-01T23:44:22.894Z,35.73
2018-11-01T23:46:56.859Z,35.33
2018-11-01T23:49:29.288Z,35.33
2018-11-01T23:52:03.153Z,35.27
2018-11-01T23:54:31.842Z,34.30
2018-11-01T23:57:00.536Z,35.10
2018-11-01T23:59:29.210Z,34.57
